createdAt,value
2019-02-24T00:01:21.474Z,9.18
2019-02-24T00:03:50.009Z,9.77
2019-02-24T00:06:18.486Z,9.00
2019-02-24T00:08:47.005Z,8.53
2019-02-24T00:11:15.447Z,9.40
2019-02-24T00:13:43.897Z,9.60
2019-02-24T00:16:13.085Z,16.52
2019-02-24T00:18:41.555Z,10.90
2019-02-24T00:21:09.997Z,9.17
2019-02-24T00:23:38.468Z,9.23
2019-02-24T00:26:06.919Z,9.93
2019-02-24T00:28:35.403Z,9.57
2019-02-24T00:31:03.966Z,9.03
2019-02-24T00:33:32.407Z,9.80
2019-02-24T00:36:20.195Z,9.13
2019-02-24T00:38:48.727Z,8.43
2019-02-24T00:41:17.179Z,8.80
2019-02-24T00:43:45.646Z,8.50
2019-02-24T00:46:14.169Z,8.73
2019-02-24T00:48:42.690Z,9.47
2019-02-24T00:51:11.149Z,7.77
2019-02-24T00:53:39.736Z,8.40
2019-02-24T00:56:08.185Z,8.43
2019-02-24T00:58:36.623Z,8.63
2019-02-24T01:01:05.135Z,9.25
2019-02-24T01:03:33.588Z,8.50
2019-02-24T01:06:02.038Z,9.63
2019-02-24T01:08:30.588Z,9.07
2019-02-24T01:10:59.049Z,8.53
2019-02-24T01:13:27.579Z,9.27
2019-02-24T01:15:56.187Z,9.33
2019-02-24T01:18:24.782Z,8.73
2019-02-24T01:20:53.222Z,9.10
2019-02-24T01:23:21.835Z,9.18
2019-02-24T01:25:50.278Z,9.00
2019-02-24T01:28:25.020Z,8.50
2019-02-24T01:30:49.250Z,7.97
2019-02-24T01:33:17.986Z,7.97
2019-02-24T01:35:46.446Z,8.27
2019-02-24T01:38:14.906Z,8.30
2019-02-24T01:40:43.387Z,8.33
2019-02-24T01:43:11.861Z,13.07
2019-02-24T01:45:40.481Z,8.08
2019-02-24T01:48:08.911Z,8.83
2019-02-24T01:50:37.393Z,8.43
2019-02-24T01:53:05.944Z,7.53
2019-02-24T01:55:35.419Z,7.73
2019-02-24T01:58:03.962Z,7.40
2019-02-24T02:00:32.514Z,7.50
2019-02-24T02:03:00.963Z,8.85
2019-02-24T02:05:29.398Z,8.00
2019-02-24T02:07:57.936Z,8.67
2019-02-24T02:10:26.391Z,8.47
2019-02-24T02:12:55.214Z,7.93
2019-02-24T02:15:23.650Z,7.80
2019-02-24T02:17:52.104Z,8.77
2019-02-24T02:20:20.680Z,7.73
2019-02-24T02:22:49.495Z,7.70
2019-02-24T02:25:17.932Z,7.53
2019-02-24T02:27:46.375Z,7.47
2019-02-24T02:30:15.596Z,8.13
2019-02-24T02:32:44.112Z,8.30
2019-02-24T02:35:13.433Z,7.75
2019-02-24T02:37:41.967Z,7.12
2019-02-24T02:40:10.545Z,8.20
2019-02-24T02:42:39.033Z,7.20
2019-02-24T02:45:08.637Z,7.33
2019-02-24T02:47:37.148Z,7.17
2019-02-24T02:50:06.439Z,8.10
2019-02-24T02:52:34.926Z,7.05
2019-02-24T02:55:03.914Z,7.97
2019-02-24T02:57:32.353Z,8.10
2019-02-24T03:00:00.945Z,8.20
2019-02-24T03:02:29.462Z,7.63
2019-02-24T03:04:57.903Z,6.80
2019-02-24T03:07:28.000Z,7.27
2019-02-24T03:09:56.522Z,7.80
2019-02-24T03:12:27.085Z,7.43
2019-02-24T03:14:55.333Z,7.20
2019-02-24T03:17:24.295Z,6.73
2019-02-24T03:19:52.864Z,7.37
2019-02-24T03:22:21.301Z,7.00
2019-02-24T03:24:49.846Z,6.40
2019-02-24T03:29:52.789Z,7.27
2019-02-24T03:32:21.226Z,6.93
2019-02-24T03:34:49.689Z,8.77
2019-02-24T03:37:18.146Z,8.60
2019-02-24T03:39:46.613Z,6.97
2019-02-24T03:42:15.746Z,6.83
2019-02-24T03:44:44.290Z,7.33
2019-02-24T03:47:12.821Z,6.67
2019-02-24T03:49:41.314Z,7.50
2019-02-24T03:52:09.853Z,7.33
2019-02-24T03:54:38.478Z,7.27
2019-02-24T03:57:06.995Z,7.70
2019-02-24T03:59:35.580Z,6.65
2019-02-24T04:02:04.187Z,6.50
2019-02-24T04:04:33.522Z,6.83
2019-02-24T04:07:02.059Z,7.17
2019-02-24T04:09:30.541Z,6.70
2019-02-24T04:11:59.054Z,7.62
2019-02-24T04:14:27.553Z,6.47
2019-02-24T04:16:56.109Z,6.97
2019-02-24T04:19:24.549Z,6.90
2019-02-24T04:21:53.101Z,6.85
2019-02-24T04:24:21.617Z,6.70
2019-02-24T04:26:51.014Z,7.33
2019-02-24T04:29:24.818Z,6.73
2019-02-24T04:31:49.631Z,6.57
2019-02-24T04:34:18.064Z,5.97
2019-02-24T04:36:46.542Z,6.57
2019-02-24T04:39:15.010Z,6.28
2019-02-24T04:41:43.474Z,6.72
2019-02-24T04:44:11.924Z,6.75
2019-02-24T04:46:40.391Z,6.40
2019-02-24T04:49:08.919Z,6.80
2019-02-24T04:51:37.392Z,6.60
2019-02-24T04:54:05.870Z,6.90
2019-02-24T04:56:34.351Z,6.47
2019-02-24T04:59:02.866Z,6.80
2019-02-24T05:01:32.010Z,6.97
2019-02-24T05:04:00.446Z,6.60
2019-02-24T05:06:28.895Z,7.63
2019-02-24T05:08:57.332Z,6.70
2019-02-24T05:11:25.842Z,6.97
2019-02-24T05:13:54.390Z,7.20
2019-02-24T05:16:22.837Z,6.60
2019-02-24T05:18:51.295Z,7.03
2019-02-24T05:21:19.763Z,6.77
2019-02-24T05:23:48.243Z,6.42
2019-02-24T05:26:16.697Z,7.00
2019-02-24T05:28:45.134Z,7.00
2019-02-24T05:31:13.611Z,7.23
2019-02-24T05:33:42.120Z,8.00
2019-02-24T05:36:10.577Z,6.87
2019-02-24T05:38:39.023Z,6.50
2019-02-24T05:41:07.499Z,6.78
2019-02-24T05:43:36.089Z,6.53
2019-02-24T05:46:04.659Z,5.92
2019-02-24T05:48:33.751Z,6.30
2019-02-24T05:51:02.336Z,7.53
2019-02-24T05:53:30.841Z,6.72
2019-02-24T05:55:59.386Z,6.17
2019-02-24T05:58:27.830Z,6.08
2019-02-24T06:00:56.304Z,7.10
2019-02-24T06:03:24.751Z,6.80
2019-02-24T06:05:53.220Z,6.33
2019-02-24T06:08:22.267Z,7.03
2019-02-24T06:10:50.854Z,6.40
2019-02-24T06:13:19.878Z,6.37
2019-02-24T06:15:48.425Z,6.50
2019-02-24T06:18:16.868Z,6.63
2019-02-24T06:20:45.339Z,5.95
2019-02-24T06:23:13.989Z,6.47
2019-02-24T06:25:42.508Z,6.90
2019-02-24T06:28:11.052Z,5.90
2019-02-24T06:30:40.340Z,6.97
2019-02-24T06:33:08.797Z,5.83
2019-02-24T06:35:38.176Z,6.47
2019-02-24T06:38:06.704Z,6.67
2019-02-24T06:40:35.187Z,6.40
2019-02-24T06:43:03.702Z,6.50
2019-02-24T06:45:32.318Z,7.13
2019-02-24T06:48:00.926Z,6.33
2019-02-24T06:50:35.400Z,6.03
2019-02-24T06:53:01.224Z,5.83
2019-02-24T06:55:29.659Z,5.63
2019-02-24T06:57:58.857Z,6.17
2019-02-24T07:00:27.322Z,6.20
2019-02-24T07:02:55.911Z,5.37
2019-02-24T07:05:24.322Z,5.67
2019-02-24T07:07:52.764Z,4.97
2019-02-24T07:10:21.216Z,5.00
2019-02-24T07:12:49.748Z,5.47
2019-02-24T07:15:18.216Z,5.65
2019-02-24T07:17:46.673Z,5.47
2019-02-24T07:20:15.469Z,4.83
2019-02-24T07:22:43.986Z,5.43
2019-02-24T07:25:12.521Z,6.13
2019-02-24T07:27:40.999Z,7.20
2019-02-24T07:30:10.216Z,5.57
2019-02-24T07:32:38.735Z,5.30
2019-02-24T07:35:07.525Z,4.80
2019-02-24T07:37:36.097Z,4.90
2019-02-24T07:40:05.080Z,5.60
2019-02-24T07:42:33.634Z,5.80
2019-02-24T07:45:02.087Z,5.70
2019-02-24T07:47:30.578Z,4.93
2019-02-24T07:49:59.045Z,4.90
2019-02-24T07:52:27.534Z,4.90
2019-02-24T07:54:56.418Z,4.50
2019-02-24T07:57:24.931Z,4.73
2019-02-24T07:59:53.526Z,4.37
2019-02-24T08:02:21.991Z,5.20
2019-02-24T08:04:50.438Z,4.53
2019-02-24T08:07:18.890Z,4.90
2019-02-24T08:09:47.345Z,5.17
2019-02-24T08:12:15.835Z,5.23
2019-02-24T08:14:44.366Z,4.80
2019-02-24T08:17:13.250Z,5.00
2019-02-24T08:19:41.822Z,4.50
2019-02-24T08:22:10.268Z,4.57
2019-02-24T08:24:38.732Z,4.37
2019-02-24T08:27:07.279Z,4.30
2019-02-24T08:29:35.809Z,4.13
2019-02-24T08:32:04.431Z,6.73
2019-02-24T08:34:32.883Z,4.33
2019-02-24T08:37:01.565Z,4.40
2019-02-24T08:39:30.046Z,4.58
2019-02-24T08:41:58.620Z,3.92
2019-02-24T08:44:27.185Z,3.80
2019-02-24T08:46:55.703Z,3.70
2019-02-24T08:49:24.207Z,3.90
2019-02-24T08:51:52.746Z,3.80
2019-02-24T08:54:21.209Z,3.80
2019-02-24T08:56:49.655Z,3.83
2019-02-24T08:59:18.282Z,3.63
2019-02-24T09:01:47.219Z,4.20
2019-02-24T09:04:15.683Z,3.70
2019-02-24T09:06:44.166Z,4.03
2019-02-24T09:09:12.743Z,4.17
2019-02-24T09:11:41.246Z,4.17
2019-02-24T09:14:09.803Z,3.73
2019-02-24T09:16:38.342Z,6.37
2019-02-24T09:19:07.006Z,4.90
2019-02-24T09:21:35.591Z,3.57
2019-02-24T09:24:04.746Z,3.77
2019-02-24T09:26:33.202Z,3.50
2019-02-24T09:29:01.797Z,3.43
2019-02-24T09:31:30.446Z,3.93
2019-02-24T09:33:59.114Z,3.53
2019-02-24T09:36:27.556Z,4.73
2019-02-24T09:38:56.075Z,3.43
2019-02-24T09:41:24.594Z,3.27
2019-02-24T09:43:53.262Z,3.90
2019-02-24T09:46:21.766Z,3.63
2019-02-24T09:48:50.272Z,3.03
2019-02-24T09:51:18.848Z,3.63
2019-02-24T09:53:47.410Z,3.03
2019-02-24T09:56:15.970Z,3.20
2019-02-24T09:58:44.610Z,3.77
2019-02-24T10:01:13.348Z,3.00
2019-02-24T10:03:41.938Z,3.43
2019-02-24T10:06:10.635Z,3.60
2019-02-24T10:08:39.245Z,3.40
2019-02-24T10:11:08.179Z,3.80
2019-02-24T10:13:36.670Z,3.20
2019-02-24T10:16:05.250Z,3.10
2019-02-24T10:18:33.796Z,7.53
2019-02-24T10:21:02.252Z,3.57
2019-02-24T10:23:30.722Z,5.90
2019-02-24T10:25:59.208Z,2.80
2019-02-24T10:28:27.783Z,3.23
2019-02-24T10:30:56.480Z,3.60
2019-02-24T10:33:25.128Z,3.93
2019-02-24T10:35:53.682Z,3.43
2019-02-24T10:38:22.341Z,3.00
2019-02-24T10:40:53.128Z,4.20
2019-02-24T10:43:21.654Z,2.83
2019-02-24T10:45:50.355Z,3.33
2019-02-24T10:48:19.214Z,4.97
2019-02-24T10:50:47.749Z,3.73
2019-02-24T10:53:16.347Z,2.60
2019-02-24T10:55:44.893Z,2.85
2019-02-24T10:58:13.396Z,2.43
2019-02-24T11:00:42.106Z,2.43
2019-02-24T11:03:10.645Z,2.80
2019-02-24T11:05:39.865Z,2.60
2019-02-24T11:08:08.429Z,3.03
2019-02-24T11:10:36.883Z,2.57
2019-02-24T11:13:05.491Z,2.40
2019-02-24T11:15:34.140Z,3.03
2019-02-24T11:18:02.777Z,5.23
2019-02-24T11:20:31.314Z,2.50
2019-02-24T11:23:00.004Z,2.27
2019-02-24T11:25:28.549Z,2.60
2019-02-24T11:27:57.248Z,2.40
2019-02-24T11:30:25.947Z,2.40
2019-02-24T11:32:54.552Z,2.47
2019-02-24T11:35:23.304Z,2.40
2019-02-24T11:37:51.815Z,2.00
2019-02-24T11:40:20.448Z,2.60
2019-02-24T11:42:48.992Z,2.25
2019-02-24T11:45:17.489Z,2.20
2019-02-24T11:47:46.174Z,2.80
2019-02-24T11:50:15.092Z,2.77
2019-02-24T11:52:43.741Z,2.85
2019-02-24T11:55:12.347Z,2.30
2019-02-24T11:57:40.910Z,2.20
2019-02-24T12:00:14.816Z,2.35
2019-02-24T12:02:43.294Z,2.10
2019-02-24T12:05:11.894Z,2.42
2019-02-24T12:07:40.515Z,2.00
2019-02-24T12:10:12.832Z,1.65
2019-02-24T12:12:41.362Z,2.20
2019-02-24T12:15:11.624Z,2.10
2019-02-24T12:17:41.179Z,2.30
2019-02-24T12:20:11.282Z,2.05
2019-02-24T12:22:40.085Z,1.92
2019-02-24T12:25:11.888Z,2.70
2019-02-24T12:27:40.488Z,4.08
2019-02-24T12:30:14.158Z,2.67
2019-02-24T12:32:42.743Z,3.50
2019-02-24T12:35:11.275Z,2.50
2019-02-24T12:37:39.869Z,3.62
2019-02-24T12:40:10.446Z,2.33
2019-02-24T12:42:39.240Z,3.20
2019-02-24T12:45:11.621Z,2.54
2019-02-24T12:47:40.152Z,6.92
2019-02-24T12:50:13.424Z,2.17
2019-02-24T12:52:41.924Z,4.10
2019-02-24T12:55:10.772Z,3.17
2019-02-24T12:57:39.855Z,3.15
2019-02-24T13:00:13.337Z,3.70
2019-02-24T13:02:41.805Z,6.03
2019-02-24T13:05:10.493Z,3.12
2019-02-24T13:07:39.037Z,3.07
2019-02-24T13:10:10.629Z,3.77
2019-02-24T13:12:39.361Z,5.30
2019-02-24T13:15:08.068Z,3.83
2019-02-24T13:17:36.614Z,2.77
2019-02-24T13:20:07.704Z,5.90
2019-02-24T13:22:36.906Z,2.67
2019-02-24T13:25:07.523Z,2.52
2019-02-24T13:27:36.169Z,5.15
2019-02-24T13:30:07.613Z,2.45
2019-02-24T13:32:36.167Z,3.80
2019-02-24T13:35:06.237Z,2.27
2019-02-24T13:37:34.992Z,2.45
2019-02-24T13:40:04.066Z,5.83
2019-02-24T13:42:32.681Z,3.90
2019-02-24T13:45:01.869Z,3.58
2019-02-24T13:47:30.381Z,4.90
2019-02-24T13:49:58.903Z,9.90
2019-02-24T13:52:27.444Z,2.42
2019-02-24T13:54:55.960Z,3.30
2019-02-24T13:57:24.635Z,2.67
2019-02-24T13:59:53.179Z,3.30
2019-02-24T14:02:24.109Z,5.03
2019-02-24T14:04:51.872Z,1.77
2019-02-24T14:07:20.493Z,5.72
2019-02-24T14:09:49.068Z,3.42
2019-02-24T14:12:17.645Z,2.37
2019-02-24T14:14:49.035Z,2.10
2019-02-24T14:17:16.310Z,2.00
2019-02-24T14:19:44.879Z,3.00
2019-02-24T14:22:13.375Z,2.00
2019-02-24T14:24:42.423Z,1.90
2019-02-24T14:27:10.876Z,1.90
2019-02-24T14:29:40.007Z,1.75
2019-02-24T14:32:08.516Z,2.00
2019-02-24T14:34:37.167Z,1.70
2019-02-24T14:37:05.734Z,2.70
2019-02-24T14:39:34.221Z,2.37
2019-02-24T14:42:04.117Z,2.30
2019-02-24T14:44:32.779Z,2.37
2019-02-24T14:47:01.296Z,3.05
2019-02-24T14:49:29.784Z,1.85
2019-02-24T14:51:58.255Z,2.00
2019-02-24T14:54:26.835Z,2.70
2019-02-24T14:56:55.424Z,1.92
2019-02-24T14:59:24.028Z,1.77
2019-02-24T15:01:52.628Z,2.30
2019-02-24T15:04:21.204Z,2.33
2019-02-24T15:06:49.668Z,2.77
2019-02-24T15:09:18.187Z,2.50
2019-02-24T15:11:46.659Z,10.28
2019-02-24T15:14:15.114Z,6.03
2019-02-24T15:16:43.649Z,2.10
2019-02-24T15:19:12.204Z,5.05
2019-02-24T15:21:40.820Z,2.60
2019-02-24T15:24:09.546Z,2.20
2019-02-24T15:26:38.094Z,2.00
2019-02-24T15:29:06.638Z,4.22
2019-02-24T15:31:35.081Z,4.42
2019-02-24T15:34:03.724Z,5.17
2019-02-24T15:36:32.243Z,2.52
2019-02-24T15:39:00.767Z,2.00
2019-02-24T15:41:29.992Z,2.62
2019-02-24T15:43:58.960Z,3.50
2019-02-24T15:46:27.526Z,2.52
2019-02-24T15:48:56.139Z,2.10
2019-02-24T15:51:24.714Z,1.95
2019-02-24T15:53:54.624Z,2.60
2019-02-24T15:56:23.197Z,5.10
2019-02-24T15:58:51.770Z,2.47
2019-02-24T16:01:20.476Z,2.40
2019-02-24T16:03:48.987Z,3.58
2019-02-24T16:06:18.545Z,4.33
2019-02-24T16:08:47.059Z,3.47
2019-02-24T16:11:15.552Z,3.27
2019-02-24T16:13:44.112Z,17.03
2019-02-24T16:16:12.690Z,19.70
2019-02-24T16:18:41.265Z,3.00
2019-02-24T16:21:09.790Z,3.03
2019-02-24T16:23:38.224Z,3.47
2019-02-24T16:26:06.763Z,2.10
2019-02-24T16:28:35.388Z,2.50
2019-02-24T16:31:03.927Z,2.87
2019-02-24T16:33:32.905Z,2.20
2019-02-24T16:36:01.529Z,5.30
2019-02-24T16:38:29.954Z,5.87
2019-02-24T16:40:58.431Z,4.67
2019-02-24T16:43:26.917Z,4.23
2019-02-24T16:45:55.510Z,4.20
2019-02-24T16:48:24.042Z,4.70
2019-02-24T16:50:53.376Z,8.10
2019-02-24T16:53:21.850Z,8.47
2019-02-24T16:55:50.616Z,5.73
2019-02-24T16:58:19.065Z,5.72
2019-02-24T17:00:47.623Z,19.13
2019-02-24T17:03:19.860Z,6.03
2019-02-24T17:05:46.256Z,6.00
2019-02-24T17:08:14.809Z,5.87
2019-02-24T17:10:50.417Z,5.10
2019-02-24T17:13:18.614Z,5.53
2019-02-24T17:15:47.097Z,6.93
2019-02-24T17:18:20.584Z,6.90
2019-02-24T17:20:48.801Z,13.17
2019-02-24T17:23:16.938Z,12.40
2019-02-24T17:25:45.825Z,11.55
2019-02-24T17:28:14.081Z,11.60
2019-02-24T17:30:42.206Z,11.60
2019-02-24T17:33:13.387Z,11.17
2019-02-24T17:35:41.619Z,9.90
2019-02-24T17:38:09.732Z,9.70
2019-02-24T17:40:37.893Z,9.43
2019-02-24T17:43:06.252Z,8.57
2019-02-24T17:45:36.911Z,9.08
2019-02-24T17:48:06.102Z,9.57
2019-02-24T17:50:34.363Z,10.67
2019-02-24T17:53:02.586Z,9.13
2019-02-24T17:55:30.751Z,9.63
2019-02-24T17:57:59.086Z,8.53
2019-02-24T18:00:32.170Z,11.63
2019-02-24T18:03:00.495Z,9.80
2019-02-24T18:05:28.721Z,8.37
2019-02-24T18:07:57.035Z,8.43
2019-02-24T18:10:25.295Z,8.03
2019-02-24T18:12:53.529Z,7.90
2019-02-24T18:19:15.359Z,7.97
2019-02-24T18:21:45.580Z,8.07
2019-02-24T18:24:21.196Z,6.33
2019-02-24T18:26:59.100Z,10.30
2019-02-24T18:29:23.391Z,14.73
2019-02-24T18:31:51.583Z,11.90
2019-02-24T18:34:19.747Z,8.43
2019-02-24T18:36:47.895Z,7.93
2019-02-24T18:39:28.617Z,7.43
2019-02-24T18:41:56.965Z,7.55
2019-02-24T18:44:25.188Z,7.17
2019-02-24T18:46:53.454Z,6.40
2019-02-24T18:49:21.773Z,7.00
2019-02-24T18:51:49.990Z,9.08
2019-02-24T18:54:20.678Z,12.10
2019-02-24T18:56:59.757Z,13.13
2019-02-24T18:59:27.413Z,8.37
2019-02-24T19:02:06.523Z,11.03
2019-02-24T19:04:39.176Z,8.87
2019-02-24T19:07:07.397Z,8.33
2019-02-24T19:09:35.636Z,23.10
2019-02-24T19:12:04.029Z,12.88
2019-02-24T19:14:32.311Z,8.67
2019-02-24T19:17:00.627Z,8.33
2019-02-24T19:19:28.911Z,8.43
2019-02-24T19:21:57.212Z,8.23
2019-02-24T19:24:25.451Z,8.17
2019-02-24T19:26:53.673Z,9.17
2019-02-24T19:29:22.694Z,8.05
2019-02-24T19:31:51.243Z,8.10
2019-02-24T19:34:19.491Z,8.80
2019-02-24T19:36:48.614Z,8.97
2019-02-24T19:39:18.439Z,8.60
2019-02-24T19:41:49.440Z,8.70
2019-02-24T19:44:18.369Z,8.93
2019-02-24T19:46:46.678Z,14.10
2019-02-24T19:49:14.894Z,12.37
2019-02-24T19:51:44.773Z,13.03
2019-02-24T19:54:15.911Z,10.73
2019-02-24T19:56:44.087Z,9.38
2019-02-24T19:59:12.368Z,11.70
2019-02-24T20:01:40.510Z,12.65
2019-02-24T20:04:15.753Z,12.00
2019-02-24T20:06:39.311Z,13.22
2019-02-24T20:09:07.759Z,11.53
2019-02-24T20:11:35.974Z,12.07
2019-02-24T20:14:04.199Z,11.00
2019-02-24T20:16:33.344Z,10.80
2019-02-24T20:19:01.607Z,8.80
2019-02-24T20:21:29.860Z,8.67
2019-02-24T20:23:58.114Z,9.58
2019-02-24T20:26:27.012Z,9.50
2019-02-24T20:28:55.322Z,9.07
2019-02-24T20:31:23.556Z,8.73
2019-02-24T20:33:51.752Z,9.57
2019-02-24T20:36:19.988Z,8.50
2019-02-24T20:38:48.205Z,11.20
2019-02-24T20:41:16.451Z,9.10
2019-02-24T20:43:44.679Z,11.10
2019-02-24T20:46:13.609Z,8.57
2019-02-24T20:48:41.861Z,22.87
2019-02-24T20:51:10.833Z,14.27
2019-02-24T20:53:39.121Z,7.47
2019-02-24T20:56:07.361Z,7.77
2019-02-24T20:58:35.522Z,7.17
2019-02-24T21:01:05.409Z,7.10
2019-02-24T21:03:33.782Z,7.67
2019-02-24T21:06:02.066Z,7.63
2019-02-24T21:08:30.238Z,8.10
2019-02-24T21:10:59.316Z,6.90
2019-02-24T21:13:27.536Z,8.70
2019-02-24T21:15:55.725Z,8.07
2019-02-24T21:18:23.882Z,8.87
2019-02-24T21:20:52.095Z,8.70
2019-02-24T21:23:20.354Z,7.87
2019-02-24T21:25:48.559Z,7.12
2019-02-24T21:28:17.133Z,8.25
2019-02-24T21:30:46.005Z,9.80
2019-02-24T21:33:14.223Z,8.13
2019-02-24T21:35:42.519Z,8.97
2019-02-24T21:38:10.707Z,7.60
2019-02-24T21:40:38.914Z,8.33
2019-02-24T21:43:07.280Z,7.77
2019-02-24T21:45:35.812Z,12.93
2019-02-24T21:48:04.080Z,8.53
2019-02-24T21:50:32.197Z,6.80
2019-02-24T21:53:01.108Z,7.40
2019-02-24T21:55:29.321Z,7.43
2019-02-24T21:57:57.715Z,7.40
2019-02-24T22:00:26.527Z,7.85
2019-02-24T22:02:54.831Z,7.50
2019-02-24T22:05:23.044Z,6.83
2019-02-24T22:07:51.207Z,7.80
2019-02-24T22:10:19.741Z,7.37
2019-02-24T22:12:47.995Z,7.00
2019-02-24T22:15:20.352Z,6.67
2019-02-24T22:17:48.645Z,6.00
2019-02-24T22:20:16.884Z,5.80
2019-02-24T22:22:45.082Z,6.20
2019-02-24T22:25:13.746Z,7.33
2019-02-24T22:27:41.969Z,7.53
2019-02-24T22:30:11.475Z,8.70
2019-02-24T22:32:39.757Z,6.90
2019-02-24T22:35:08.887Z,8.03
2019-02-24T22:37:37.091Z,8.97
2019-02-24T22:40:06.762Z,8.60
2019-02-24T22:42:34.957Z,8.33
2019-02-24T22:45:03.274Z,8.30
2019-02-24T22:47:31.459Z,7.43
2019-02-24T22:50:00.326Z,8.27
2019-02-24T22:52:28.451Z,8.43
2019-02-24T22:54:56.745Z,7.73
2019-02-24T22:57:25.061Z,8.07
2019-02-24T22:59:53.345Z,7.80
2019-02-24T23:02:22.150Z,11.55
2019-02-24T23:04:50.363Z,9.43
2019-02-24T23:07:18.683Z,8.17
2019-02-24T23:09:46.894Z,8.77
2019-02-24T23:12:15.010Z,9.57
2019-02-24T23:14:43.154Z,9.40
2019-02-24T23:17:11.410Z,9.18
2019-02-24T23:19:39.542Z,8.63
2019-02-24T23:22:07.727Z,7.97
2019-02-24T23:24:35.957Z,8.48
2019-02-24T23:27:04.171Z,11.35
2019-02-24T23:29:32.345Z,9.35
2019-02-24T23:32:00.554Z,9.27
2019-02-24T23:34:28.674Z,9.93
2019-02-24T23:36:56.959Z,8.68
2019-02-24T23:39:25.083Z,8.77
2019-02-24T23:41:53.238Z,9.35
2019-02-24T23:44:21.424Z,9.08
2019-02-24T23:46:50.324Z,9.87
2019-02-24T23:49:18.491Z,9.77
2019-02-24T23:51:46.682Z,9.03
2019-02-24T23:54:14.925Z,9.55
2019-02-24T23:56:43.079Z,9.90
2019-02-24T23:59:11.531Z,9.97
